Bitte die für das Benutzerkonto hinterlegte E-Mail-Adresse eingeben. Der Benutzername wird dann an diese E-Mail-Adresse geschickt.

 

 

 
NEU! ab. 1.4.
Nortel Info 128,740 MHz

WebCam

  
Kamera Halle
Kamera Vorfeld
Wetter EDDS

METAR

EDDS 170550Z 00000KT 9000 2000N BCFG FEW001 M03/M03 Q1018 TEMPO 0800 FZFG BKN001 =
EDDS 170500Z 1706/1806 VRB03KT 9999 FEW001 SCT035 TEMPO 1706/1709 0500 FZFG BKN001 TEMPO 1709/1712 3000 BR TEMPO 1712/1716 21005KT TEMPO 1720/1806 1500 BCFG


TAF

EDDS 170500Z 1706/1806 VRB03KT 9999 FEW001 SCT035 TEMPO 1706/1709 0500 FZFG BKN001 TEMPO 1709/1712 3000 BR TEMPO 1712/1716 21005KT TEMPO 1720/1806 1500 BCFG =


SR/SS

07:08 / 15:26 UTC
(EDSO 17-12-2018)